You are not logged in, Click here to log in
鹿児島空港KOJ / RJFK 日本鹿兒島縣霧島市
ICAO: RJFK Country: 日本鹿兒島縣霧島市
Latitude: 31.8029 Longitude: 130.718
Total Arrivals: 31 Total Departures: 30
Latest Arrival: BR9118 (RCTP-RJFK)Jason. Li Latest Departure: JL495403 (RJFK-RJFF)Stone. Chang
Scenery:
METAR : RJFK 071200Z 21007KT 9999 FEW015 SCT025 26/25 Q1012

鹿児島空港KOJ

You are accessing this site from IP address 34.200.218.187. Virtual Airline. CMS by phpVMS.Website designed by Zumeweb and edited by Theo Bearman.
There is 0 User(s) Online: | and 11 Guest(s) Online.
All information on this site is for fight simulation purposes only. This site is for flight logging for pilots of Virtual Airline&模擬飛行論壇 FlySim only.